createdAt,value
2022-11-30T00:02:33.811Z,7.70
2022-11-30T00:07:35.641Z,7.80
2022-11-30T00:12:37.423Z,7.80
2022-11-30T00:17:42.495Z,7.70
2022-11-30T00:22:44.154Z,7.60
2022-11-30T00:27:45.806Z,7.70
2022-11-30T00:32:47.423Z,7.60
2022-11-30T00:37:49.095Z,7.50
2022-11-30T00:42:50.776Z,7.50
2022-11-30T00:47:52.403Z,7.40
2022-11-30T00:52:54.068Z,7.50
2022-11-30T00:57:55.733Z,7.30
2022-11-30T01:02:59.253Z,7.30
2022-11-30T01:08:02.515Z,7.20
2022-11-30T01:13:04.276Z,7.20
2022-11-30T01:18:06.559Z,7.20
2022-11-30T01:23:08.550Z,7.10
2022-11-30T01:28:10.700Z,7.10
2022-11-30T01:33:12.436Z,7.10
2022-11-30T01:38:14.132Z,7.20
2022-11-30T01:43:15.916Z,7.20
2022-11-30T01:48:17.686Z,7.20
2022-11-30T01:53:19.561Z,7.10
2022-11-30T01:58:29.891Z,7.10
2022-11-30T02:03:55.969Z,7.10
2022-11-30T02:08:57.885Z,7.10
2022-11-30T02:14:05.414Z,7.10
2022-11-30T02:19:38.074Z,7.00
2022-11-30T02:25:37.249Z,7.00
2022-11-30T02:30:43.895Z,6.90
2022-11-30T02:35:54.575Z,6.90
2022-11-30T02:40:56.935Z,6.90
2022-11-30T02:46:10.857Z,6.90
2022-11-30T02:51:16.864Z,7.00
2022-11-30T02:56:19.667Z,7.00
2022-11-30T03:01:22.390Z,7.20
2022-11-30T03:06:24.078Z,7.10
2022-11-30T03:11:25.751Z,7.00
2022-11-30T03:16:27.682Z,6.90
2022-11-30T03:21:29.508Z,6.90
2022-11-30T03:26:31.178Z,6.80
2022-11-30T03:31:32.961Z,6.80
2022-11-30T03:36:34.736Z,6.80
2022-11-30T03:41:36.497Z,6.80
2022-11-30T03:46:38.281Z,6.80
2022-11-30T03:51:40.012Z,6.80
2022-11-30T03:56:41.662Z,6.80
2022-11-30T04:01:43.398Z,6.80
2022-11-30T04:06:45.161Z,6.70
2022-11-30T04:11:46.864Z,6.80
2022-11-30T04:16:48.515Z,6.70
2022-11-30T04:21:51.419Z,6.70
2022-11-30T04:26:53.154Z,6.60
2022-11-30T04:31:54.814Z,6.70
2022-11-30T04:37:00.264Z,6.80
2022-11-30T04:42:02.486Z,6.80
2022-11-30T04:47:04.358Z,6.80
2022-11-30T04:52:06.021Z,6.90
2022-11-30T04:57:07.730Z,6.80
2022-11-30T05:02:09.548Z,6.80
2022-11-30T05:07:11.290Z,6.80
2022-11-30T05:12:13.014Z,6.80
2022-11-30T05:17:14.705Z,6.80
2022-11-30T05:22:16.407Z,6.70
2022-11-30T05:27:22.332Z,6.70
2022-11-30T05:32:24.474Z,6.70
2022-11-30T05:37:26.243Z,6.70
2022-11-30T05:42:28.234Z,6.70
2022-11-30T05:47:29.960Z,6.70
2022-11-30T05:52:31.648Z,6.60
2022-11-30T05:57:37.263Z,6.70
2022-11-30T06:02:39.042Z,6.70
2022-11-30T06:07:41.385Z,6.80
2022-11-30T06:12:43.119Z,6.90
2022-11-30T06:17:44.828Z,6.80
2022-11-30T06:22:47.266Z,7.00
2022-11-30T06:27:49.060Z,6.80
2022-11-30T06:32:53.045Z,6.70
2022-11-30T06:37:55.182Z,6.70
2022-11-30T06:42:56.846Z,6.80
2022-11-30T06:47:58.765Z,6.80
2022-11-30T06:53:00.584Z,6.80
2022-11-30T06:58:09.628Z,6.70
2022-11-30T07:03:12.101Z,6.70
2022-11-30T07:08:16.331Z,6.70
2022-11-30T07:13:19.184Z,6.70
2022-11-30T07:18:20.952Z,6.60
2022-11-30T07:23:41.172Z,6.60
2022-11-30T07:28:46.057Z,6.50
2022-11-30T07:33:48.867Z,6.40
2022-11-30T07:38:50.537Z,6.40
2022-11-30T07:43:52.249Z,6.40
2022-11-30T07:48:54.005Z,6.50
2022-11-30T07:53:56.887Z,6.50
2022-11-30T07:59:00.785Z,6.60
2022-11-30T08:04:02.606Z,6.50
2022-11-30T08:09:05.177Z,6.40
2022-11-30T08:14:06.849Z,6.40
2022-11-30T08:19:08.685Z,6.60
2022-11-30T08:24:13.606Z,6.60
2022-11-30T08:29:15.328Z,6.60
2022-11-30T08:34:17.166Z,6.80
2022-11-30T08:39:18.979Z,6.80
2022-11-30T08:44:20.727Z,7.00
2022-11-30T08:49:24.441Z,7.20
2022-11-30T08:54:27.338Z,7.20
2022-11-30T08:59:31.373Z,7.20
2022-11-30T09:04:33.054Z,7.10
2022-11-30T09:09:35.073Z,7.20
2022-11-30T09:14:36.875Z,7.10
2022-11-30T09:19:38.586Z,7.20
2022-11-30T09:24:41.410Z,7.30
2022-11-30T09:29:43.081Z,7.30
2022-11-30T09:34:44.754Z,7.40
2022-11-30T09:39:46.444Z,7.40
2022-11-30T09:45:14.171Z,7.30
2022-11-30T09:50:22.562Z,7.50
2022-11-30T09:55:33.985Z,7.60
2022-11-30T10:00:36.890Z,7.60
2022-11-30T10:06:06.897Z,7.70
2022-11-30T10:11:18.711Z,7.60
2022-11-30T10:16:32.370Z,7.70
2022-11-30T10:22:17.012Z,7.60
2022-11-30T10:27:38.164Z,7.50
2022-11-30T10:32:41.869Z,7.70
2022-11-30T10:37:45.521Z,7.80
2022-11-30T10:42:54.557Z,7.70
2022-11-30T10:48:06.141Z,7.70
2022-11-30T10:53:11.842Z,7.90
2022-11-30T10:58:42.996Z,7.90
2022-11-30T11:03:44.679Z,8.00
2022-11-30T11:08:46.989Z,8.10
2022-11-30T11:13:48.672Z,8.10
2022-11-30T11:18:55.823Z,8.10
2022-11-30T11:23:58.220Z,8.20
2022-11-30T11:28:59.967Z,8.20
2022-11-30T11:34:02.040Z,8.30
2022-11-30T11:39:23.865Z,8.40
2022-11-30T11:44:27.905Z,8.40
2022-11-30T11:49:38.481Z,8.60
2022-11-30T11:54:57.246Z,8.60
2022-11-30T12:00:15.607Z,8.60
2022-11-30T12:05:24.540Z,8.30
2022-11-30T12:10:52.809Z,8.40
2022-11-30T12:16:00.805Z,8.50
2022-11-30T12:21:14.786Z,8.70
2022-11-30T12:26:48.513Z,8.60
2022-11-30T12:32:19.887Z,8.50
2022-11-30T12:37:50.609Z,8.70
2022-11-30T12:43:23.703Z,8.40
2022-11-30T12:49:08.779Z,8.50
2022-11-30T12:54:19.306Z,8.30
2022-11-30T12:59:34.761Z,8.30
2022-11-30T13:04:57.727Z,8.20
2022-11-30T13:10:19.011Z,8.10
2022-11-30T13:15:31.154Z,8.20
2022-11-30T13:20:46.657Z,8.40
2022-11-30T13:26:07.887Z,8.10
2022-11-30T13:31:25.523Z,7.90
2022-11-30T13:36:38.184Z,7.60
2022-11-30T13:41:45.142Z,7.60
2022-11-30T13:46:51.711Z,7.60
2022-11-30T13:52:20.869Z,7.50
2022-11-30T13:57:35.520Z,7.60
2022-11-30T14:02:42.019Z,7.70
2022-11-30T14:07:52.969Z,7.70
2022-11-30T14:12:58.873Z,7.60
2022-11-30T14:18:24.761Z,7.60
2022-11-30T14:23:45.047Z,7.40
2022-11-30T14:28:57.320Z,7.20
2022-11-30T14:34:11.776Z,7.00
2022-11-30T14:39:33.681Z,6.80
2022-11-30T14:44:36.836Z,6.60
2022-11-30T14:49:45.992Z,6.50
2022-11-30T14:54:58.415Z,6.40
2022-11-30T15:00:00.258Z,6.20
2022-11-30T15:05:02.147Z,6.20
2022-11-30T15:10:07.911Z,6.10
2022-11-30T15:15:22.138Z,6.00
2022-11-30T15:20:28.709Z,5.90
2022-11-30T15:25:37.405Z,5.80
2022-11-30T15:30:43.329Z,5.80
2022-11-30T15:36:14.149Z,5.70
2022-11-30T15:41:22.477Z,5.60
2022-11-30T15:46:46.104Z,5.50
2022-11-30T15:52:05.568Z,5.50
2022-11-30T15:57:09.220Z,5.40
2022-11-30T16:02:31.379Z,5.40
2022-11-30T16:07:36.330Z,5.40
2022-11-30T16:12:38.112Z,5.30
2022-11-30T16:17:39.797Z,5.20
2022-11-30T16:22:46.716Z,5.10
2022-11-30T16:27:48.909Z,5.10
2022-11-30T16:32:51.673Z,5.10
2022-11-30T16:37:53.458Z,5.00
2022-11-30T16:42:55.151Z,5.00
2022-11-30T16:47:56.866Z,4.90
2022-11-30T16:52:58.858Z,4.80
2022-11-30T16:58:01.610Z,4.70
2022-11-30T17:03:20.568Z,4.70
2022-11-30T17:08:22.881Z,4.70
2022-11-30T17:13:24.538Z,4.60
2022-11-30T17:18:26.178Z,4.50
2022-11-30T17:23:27.835Z,4.40
2022-11-30T17:28:29.516Z,4.30
2022-11-30T17:33:34.747Z,4.30
2022-11-30T17:38:37.600Z,4.20
2022-11-30T17:43:39.565Z,4.10
2022-11-30T17:48:41.681Z,4.00
2022-11-30T17:53:44.316Z,3.90
2022-11-30T17:58:49.025Z,3.80
2022-11-30T18:03:52.277Z,3.70
2022-11-30T18:08:54.336Z,3.60
2022-11-30T18:13:59.582Z,3.50
2022-11-30T18:19:01.273Z,3.40
2022-11-30T18:24:02.963Z,3.30
2022-11-30T18:29:05.059Z,3.20
2022-11-30T18:34:07.282Z,3.20
2022-11-30T18:39:09.412Z,3.10
2022-11-30T18:44:11.359Z,3.00
2022-11-30T18:49:13.224Z,3.00
2022-11-30T18:54:14.913Z,3.00
2022-11-30T18:59:16.651Z,3.00
2022-11-30T19:04:18.322Z,3.00
2022-11-30T19:09:20.110Z,3.00
2022-11-30T19:14:21.761Z,3.00
2022-11-30T19:19:23.466Z,3.00
2022-11-30T19:24:25.375Z,3.00
2022-11-30T19:29:27.091Z,2.90
2022-11-30T19:34:28.808Z,2.80
2022-11-30T19:39:30.550Z,2.80
2022-11-30T19:44:32.212Z,2.90
2022-11-30T19:49:33.929Z,2.90
2022-11-30T19:54:35.632Z,3.10
2022-11-30T19:59:37.336Z,3.20
2022-11-30T20:04:39.579Z,3.30
2022-11-30T20:09:41.505Z,3.20
2022-11-30T20:14:43.267Z,3.30
2022-11-30T20:19:44.960Z,3.30
2022-11-30T20:24:47.065Z,3.40
2022-11-30T20:29:50.999Z,3.60
2022-11-30T20:34:52.698Z,3.50
2022-11-30T20:39:54.537Z,3.50
2022-11-30T20:44:56.239Z,3.60
2022-11-30T20:49:58.132Z,3.60
2022-11-30T20:55:00.376Z,3.70
2022-11-30T21:00:02.333Z,3.70
2022-11-30T21:05:04.224Z,3.70
2022-11-30T21:10:06.670Z,3.80
2022-11-30T21:15:09.807Z,3.90
2022-11-30T21:20:12.190Z,3.80
2022-11-30T21:25:14.117Z,3.80
2022-11-30T21:30:16.045Z,3.80
2022-11-30T21:35:17.810Z,3.90
2022-11-30T21:40:19.477Z,3.80
2022-11-30T21:45:21.328Z,3.90
2022-11-30T21:50:27.216Z,3.80
2022-11-30T21:55:29.207Z,3.70
2022-11-30T22:00:30.919Z,3.70
2022-11-30T22:05:32.683Z,3.80
2022-11-30T22:10:34.472Z,3.70
2022-11-30T22:15:36.306Z,3.70
2022-11-30T22:20:38.125Z,3.80
2022-11-30T22:25:39.938Z,3.70
2022-11-30T22:30:41.699Z,3.60
2022-11-30T22:35:43.470Z,3.60
2022-11-30T22:40:45.143Z,3.60
2022-11-30T22:45:46.807Z,3.70
2022-11-30T22:50:48.554Z,3.60
2022-11-30T22:55:50.417Z,3.70
2022-11-30T23:00:52.267Z,3.70
2022-11-30T23:05:55.210Z,3.70
2022-11-30T23:11:03.903Z,3.80
2022-11-30T23:16:06.767Z,3.70
2022-11-30T23:21:17.510Z,3.80
2022-11-30T23:26:29.130Z,3.70
2022-11-30T23:31:35.738Z,3.70
2022-11-30T23:36:38.331Z,3.80
2022-11-30T23:41:40.890Z,3.80
2022-11-30T23:46:42.784Z,3.70
2022-11-30T23:51:44.537Z,3.80
2022-11-30T23:56:46.305Z,3.80
